• Join FlightAware (Why Join?)
  • Login
  • US Flag GB Flag 
22:04 EDT


 

Airport Tracker/Info


-or-


 

Live Flight TrackerFlight Track Log ✈ PDT4207 ✈ 05-Nov-2013 ✈ KPHL - KBGM

Flight Track Log - Related Links

Times and Time Zones

All times are in EST time to prevent confusion due to time zone crossing. See the PDT4207 flight status page for this flight to view local times or setup timezone preferences in your user account.

Time Position Orientation Groundspeed Altitude Reporting Facility
EST Latitude Longitude Course Direction KTS MPH feet Rate Location/Type
21:41 39.8833 -75.2167 349° North 113 130 500  Level Philadelphia TRACON
21:42 39.9167 -75.1667 49° Northeast 157 181 2,100 1,320 Climbing Philadelphia TRACON
21:43 39.9500 -75.1333 37° Northeast 151 174 3,300 960 Climbing Philadelphia TRACON
21:44 40.1098 -75.3136 348° North  Level Estimated
21:44 39.9833 -75.1500 339° North 173 199 4,000  Level Philadelphia TRACON
21:45 40.1901 -75.3300 351° North  Level FlightAware Approximate
21:45 40.0333 -75.1667 346° North 211 243 4,000  Level Philadelphia TRACON
21:46 40.2705 -75.3464 351° North  Level FlightAware Approximate
21:46 40.1000 -75.2000 339° North 222 255 4,000  Level Philadelphia TRACON
21:47 40.3495 -75.3715 349° North  Level Estimated
21:47 40.1500 -75.2333 333° Northwest 227 261 4,000  Level Philadelphia TRACON
21:49 40.2425 -75.2794 339° North  Level FlightAware Approximate
21:56 40.7965 -75.4500 North  Level FlightAware Approximate
21:57 40.8778 -75.4500 North  Level FlightAware Approximate
21:58 40.9592 -75.4500 North  Level FlightAware Approximate
21:59 41.0405 -75.4505 357° North  Level FlightAware Approximate
22:00 41.1217 -75.4568 357° North  Level FlightAware Approximate
22:01 41.2029 -75.4630 357° North  Level FlightAware Approximate
22:02 41.2841 -75.4667 North  Level FlightAware Approximate
22:03 41.3654 -75.4667 North  Level FlightAware Approximate
22:04 41.4468 -75.4667 North  Level FlightAware Approximate
22:05 41.5159 -75.5157 323° Northwest  Level FlightAware Approximate
22:06 41.5810 -75.5808 323° Northwest  Level FlightAware Approximate
22:07 41.6461 -75.6459 323° Northwest  Level FlightAware Approximate
22:08 41.7112 -75.7112 323° Northwest  Level FlightAware Approximate
22:09 41.7777 -75.7739 325° Northwest  Level FlightAware Approximate
22:10 41.8444 -75.8365 325° Northwest  Level FlightAware Approximate
22:11 41.9109 -75.8992 325° Northwest  Level FlightAware Approximate
22:12 41.9775 -75.9621 325° Northwest  Level FlightAware Approximate
22:13 42.0432 -76.0265 323° Northwest  Level FlightAware Approximate
22:14 42.1085 -76.0918 323° Northwest  Level FlightAware Approximate
22:15 42.1540 -76.0960 37° Northeast  Level FlightAware Approximate
22:16 42.1978 -76.0055 62° Northeast  Level FlightAware Approximate
22:17 42.2000 -75.9667 90° East  Level FlightAware Approximate
22:18 42.2084 -75.9796 90° East  Level Estimated
22:19 42.2084 -75.9796 90° East  Level Estimated
22:20 42.2084 -75.9796 90° East  Level Estimated
22:21 42.2084 -75.9796 90° East  Level Estimated
22:22 42.2084 -75.9796 90° East  Level Estimated
22:23 42.2084 -75.9796 90° East  Level Estimated
22:24 42.2084 -75.9796 90° East  Level Estimated
22:25 42.2084 -75.9796 90° East  Level Estimated